createdAt,value
2019-03-31T00:00:07.103Z,66.12
2019-03-31T00:01:10.894Z,66.31
2019-03-31T00:02:07.056Z,66.69
2019-03-31T00:03:07.038Z,66.22
2019-03-31T00:04:07.014Z,66.31
2019-03-31T00:05:06.989Z,66.88
2019-03-31T00:06:06.970Z,66.69
2019-03-31T00:07:06.953Z,67.04
2019-03-31T00:08:06.925Z,66.94
2019-03-31T00:09:06.902Z,66.85
2019-03-31T00:10:06.879Z,67.42
2019-03-31T00:11:06.854Z,67.23
2019-03-31T00:12:06.830Z,67.33
2019-03-31T00:13:06.812Z,67.9
2019-03-31T00:14:06.795Z,67.8
2019-03-31T00:15:06.769Z,67.71
2019-03-31T00:16:06.743Z,67.9
2019-03-31T00:17:06.719Z,67.99
2019-03-31T00:18:06.711Z,68.28
2019-03-31T00:19:06.679Z,67.99
2019-03-31T00:20:06.671Z,68.38
2019-03-31T00:21:06.637Z,68.18
2019-03-31T00:22:06.612Z,67.99
2019-03-31T00:23:06.585Z,67.99
2019-03-31T00:24:06.564Z,68.18
2019-03-31T00:25:06.568Z,68.28
2019-03-31T00:26:06.516Z,68.76
2019-03-31T00:27:06.495Z,68.57
2019-03-31T00:28:06.474Z,68.47
2019-03-31T00:29:06.447Z,68.66
2019-03-31T00:30:06.432Z,68.85
2019-03-31T00:31:06.407Z,68.57
2019-03-31T00:32:06.427Z,68.95
2019-03-31T00:33:06.363Z,68.95
2019-03-31T00:34:06.339Z,69.14
2019-03-31T00:35:06.333Z,69.43
2019-03-31T00:36:06.298Z,69.43
2019-03-31T00:37:07.724Z,69.29
2019-03-31T00:38:06.249Z,69.2
2019-03-31T00:39:06.230Z,69.68
2019-03-31T00:40:06.203Z,69.48
2019-03-31T00:41:06.179Z,69.87
2019-03-31T00:42:06.155Z,70.06
2019-03-31T00:43:06.131Z,70.15
2019-03-31T00:44:06.109Z,69.96
2019-03-31T00:45:06.086Z,70.06
2019-03-31T00:46:06.063Z,70.15
2019-03-31T00:47:06.044Z,70.25
2019-03-31T00:48:06.023Z,69.96
2019-03-31T00:49:05.994Z,69.96
2019-03-31T00:50:05.735Z,70.25
2019-03-31T00:51:05.953Z,70.25
2019-03-31T00:52:05.923Z,70.53
2019-03-31T00:53:05.908Z,70.63
2019-03-31T00:54:05.888Z,70.34
2019-03-31T00:55:05.862Z,71.01
2019-03-31T00:56:05.840Z,71.2
2019-03-31T00:57:05.820Z,70.72
2019-03-31T00:58:05.788Z,71.39
2019-03-31T00:59:05.767Z,71.68
2019-03-31T01:00:05.744Z,71.68
2019-03-31T01:01:05.731Z,71.3
2019-03-31T01:02:05.702Z,71.48
2019-03-31T01:03:05.673Z,71.87
2019-03-31T01:04:05.654Z,72.44
2019-03-31T01:05:05.630Z,71.96
2019-03-31T01:06:05.607Z,71.96
2019-03-31T01:07:05.582Z,72.16
2019-03-31T01:08:05.559Z,72.34
2019-03-31T01:09:05.538Z,72.53
2019-03-31T01:10:05.509Z,72.53
2019-03-31T01:11:05.494Z,72.53
2019-03-31T01:12:05.475Z,72.34
2019-03-31T01:13:05.445Z,73.21
2019-03-31T01:14:05.419Z,72.92
2019-03-31T01:15:05.392Z,72.69
2019-03-31T01:16:05.382Z,73.01
2019-03-31T01:17:05.349Z,73.07
2019-03-31T01:18:05.324Z,73.26
2019-03-31T01:19:05.302Z,73.65
2019-03-31T01:20:05.282Z,73.45
2019-03-31T01:21:05.254Z,73.74
2019-03-31T01:22:05.233Z,74.02
2019-03-31T01:23:05.206Z,74.12
2019-03-31T01:24:05.185Z,74.21
2019-03-31T01:25:05.164Z,74.31
2019-03-31T01:26:05.138Z,74.12
2019-03-31T01:27:05.119Z,74.5
2019-03-31T01:28:05.091Z,74.6
2019-03-31T01:29:05.070Z,74.69
2019-03-31T01:30:05.047Z,75.07
2019-03-31T01:31:05.020Z,74.69
2019-03-31T01:32:04.999Z,74.5
2019-03-31T01:33:04.983Z,75.26
2019-03-31T01:34:04.955Z,75.26
2019-03-31T01:35:04.935Z,74.98
2019-03-31T01:36:04.916Z,75.55
2019-03-31T01:37:04.879Z,75.36
2019-03-31T01:38:04.858Z,75.64
2019-03-31T01:39:04.835Z,75.84
2019-03-31T01:40:04.823Z,75.93
2019-03-31T01:41:04.794Z,75.93
2019-03-31T01:42:04.768Z,76.31
2019-03-31T01:43:04.743Z,76.12
2019-03-31T01:44:04.477Z,76.59
2019-03-31T01:45:04.698Z,76.69
2019-03-31T01:46:05.348Z,76.59
2019-03-31T01:47:04.654Z,76.79
2019-03-31T01:48:04.621Z,77.07
2019-03-31T01:49:04.601Z,77.45
2019-03-31T01:50:04.577Z,77.07
2019-03-31T01:51:04.549Z,77.07
2019-03-31T01:52:04.529Z,77.45
2019-03-31T01:53:04.506Z,77.36
2019-03-31T01:54:04.486Z,77.83
2019-03-31T01:55:04.454Z,78.12
2019-03-31T01:56:04.435Z,77.93
2019-03-31T01:57:04.413Z,78.03
2019-03-31T01:58:04.388Z,78.59
2019-03-31T01:59:04.361Z,78.03
2019-03-31T02:00:04.353Z,78.27
2019-03-31T02:01:04.322Z,78.65
2019-03-31T02:02:07.035Z,78.85
2019-03-31T02:03:04.265Z,78.94
2019-03-31T02:04:04.240Z,78.85
2019-03-31T02:05:04.226Z,78.65
2019-03-31T02:06:04.203Z,79.03
2019-03-31T02:07:04.182Z,79.13
2019-03-31T02:08:04.149Z,79.41
2019-03-31T02:09:04.125Z,79.6
2019-03-31T02:10:04.118Z,80.18
2019-03-31T02:11:04.292Z,80.18
2019-03-31T02:12:04.050Z,79.99
2019-03-31T02:13:04.034Z,80.36
2019-03-31T02:14:04.008Z,80.18
2019-03-31T02:15:03.983Z,80.55
2019-03-31T02:16:03.956Z,80.46
2019-03-31T02:17:03.935Z,81.13
2019-03-31T02:18:03.925Z,80.46
2019-03-31T02:19:03.894Z,80.55
2019-03-31T02:20:03.870Z,80.84
2019-03-31T02:21:03.838Z,81.41
2019-03-31T02:22:03.822Z,81.13
2019-03-31T02:23:03.790Z,81.23
2019-03-31T02:24:03.767Z,81.23
2019-03-31T02:25:03.744Z,81.51
2019-03-31T02:26:03.720Z,81.79
2019-03-31T02:27:03.695Z,81.51
2019-03-31T02:28:03.672Z,81.7
2019-03-31T02:29:03.645Z,81.7
2019-03-31T02:30:03.801Z,81.79
2019-03-31T02:31:03.612Z,81.7
2019-03-31T02:32:21.921Z,82.46
2019-03-31T02:33:03.554Z,82.08
2019-03-31T02:34:03.545Z,81.89
2019-03-31T02:35:03.504Z,81.89
2019-03-31T02:36:03.491Z,81.79
2019-03-31T02:37:03.466Z,81.51
2019-03-31T02:38:03.437Z,81.89
2019-03-31T02:39:03.407Z,82.18
2019-03-31T02:40:03.389Z,81.98
2019-03-31T02:41:03.366Z,81.79
2019-03-31T02:42:03.354Z,81.89
2019-03-31T02:43:04.527Z,82.27
2019-03-31T02:44:03.305Z,82.46
2019-03-31T02:45:03.275Z,82.27
2019-03-31T02:46:03.242Z,82.37
2019-03-31T02:47:03.228Z,83.03
2019-03-31T02:48:03.252Z,82.75
2019-03-31T02:49:03.172Z,82.46
2019-03-31T02:50:03.218Z,82.93
2019-03-31T02:51:02.909Z,82.75
2019-03-31T02:52:03.170Z,83.41
2019-03-31T02:53:04.055Z,83.22
2019-03-31T02:54:03.084Z,82.84
2019-03-31T02:55:03.070Z,83.13
2019-03-31T02:56:02.770Z,83.41
2019-03-31T02:57:02.982Z,83.47
2019-03-31T02:58:02.960Z,83.41
2019-03-31T02:59:02.933Z,83.32
2019-03-31T03:00:03.087Z,83.32
2019-03-31T03:01:02.886Z,83.89
2019-03-31T03:02:02.864Z,83.7
2019-03-31T03:03:02.833Z,83.85
2019-03-31T03:04:02.814Z,83.94
2019-03-31T03:05:21.021Z,83.89
2019-03-31T03:06:02.533Z,83.85
2019-03-31T03:07:02.742Z,84.27
2019-03-31T03:08:02.497Z,84.08
2019-03-31T03:09:02.693Z,84.17
2019-03-31T03:10:02.975Z,84.08
2019-03-31T03:11:02.648Z,84.27
2019-03-31T03:12:02.625Z,84.08
2019-03-31T03:13:02.601Z,84.46
2019-03-31T03:14:02.580Z,84.27
2019-03-31T03:15:02.962Z,84.46
2019-03-31T03:16:02.543Z,84.27
2019-03-31T03:17:02.507Z,84.08
2019-03-31T03:18:02.488Z,84.27
2019-03-31T03:19:02.573Z,84.27
2019-03-31T03:20:02.768Z,84.27
2019-03-31T03:21:02.420Z,84.56
2019-03-31T03:22:02.384Z,84.27
2019-03-31T03:23:02.380Z,84.27
2019-03-31T03:24:02.348Z,84.36
2019-03-31T03:25:02.316Z,84.27
2019-03-31T03:26:02.301Z,84.36
2019-03-31T03:27:02.267Z,84.27
2019-03-31T03:28:02.247Z,84.27
2019-03-31T03:29:02.241Z,84.27
2019-03-31T03:30:02.236Z,83.89
2019-03-31T03:31:03.087Z,83.98
2019-03-31T03:32:02.158Z,84.36
2019-03-31T03:33:18.655Z,84.08
2019-03-31T03:34:02.210Z,84.23
2019-03-31T03:35:02.206Z,84.36
2019-03-31T03:36:02.065Z,84.46
2019-03-31T03:37:02.040Z,84.99
2019-03-31T03:38:02.007Z,85.08
2019-03-31T03:39:02.014Z,84.89
2019-03-31T03:40:01.953Z,84.89
2019-03-31T03:41:01.939Z,84.89
2019-03-31T03:42:01.913Z,85.28
2019-03-31T03:43:01.914Z,85.18
2019-03-31T03:44:04.846Z,85.37
2019-03-31T03:45:01.884Z,85.28
2019-03-31T03:46:01.813Z,85.28
2019-03-31T03:47:01.793Z,85.94
2019-03-31T03:48:01.797Z,85.75
2019-03-31T03:49:03.076Z,85.75
2019-03-31T03:50:01.778Z,85.66
2019-03-31T03:51:01.703Z,85.75
2019-03-31T03:52:01.429Z,85.75
2019-03-31T03:53:01.667Z,86.13
2019-03-31T03:54:01.621Z,86.13
2019-03-31T03:55:01.598Z,86.32
2019-03-31T03:56:01.569Z,86.13
2019-03-31T03:57:01.546Z,85.94
2019-03-31T03:58:01.534Z,86.22
2019-03-31T03:59:01.499Z,86.22
2019-03-31T04:00:01.476Z,86.32
2019-03-31T04:01:01.455Z,86.42
2019-03-31T04:02:01.432Z,86.42
2019-03-31T04:03:01.409Z,86.8
2019-03-31T04:04:01.385Z,86.8
2019-03-31T04:05:01.370Z,86.61
2019-03-31T04:06:01.340Z,86.61
2019-03-31T04:07:01.306Z,86.61
2019-03-31T04:08:01.284Z,86.61
2019-03-31T04:09:01.259Z,86.51
2019-03-31T04:10:01.234Z,86.51
2019-03-31T04:11:01.208Z,86.61
2019-03-31T04:12:01.199Z,86.51
2019-03-31T04:13:01.170Z,86.51
2019-03-31T04:14:01.135Z,86.32
2019-03-31T04:15:01.126Z,86.32
2019-03-31T04:16:01.093Z,86.7
2019-03-31T04:17:01.074Z,86.7
2019-03-31T04:18:01.047Z,86.7
2019-03-31T04:19:01.071Z,86.42
2019-03-31T04:20:00.994Z,86.42
2019-03-31T04:21:00.989Z,86.7
2019-03-31T04:22:00.955Z,86.51
2019-03-31T04:23:00.920Z,86.51
2019-03-31T04:24:00.919Z,86.9
2019-03-31T04:25:00.885Z,86.61
2019-03-31T04:26:00.856Z,86.51
2019-03-31T04:27:00.828Z,86.51
2019-03-31T04:28:00.803Z,86.61
2019-03-31T04:29:00.774Z,86.61
2019-03-31T04:30:00.858Z,86.61
2019-03-31T04:31:00.733Z,86.8
2019-03-31T04:32:00.717Z,86.42
2019-03-31T04:33:00.685Z,86.8
2019-03-31T04:34:00.653Z,86.8
2019-03-31T04:35:00.746Z,86.61
2019-03-31T04:36:00.375Z,86.9
2019-03-31T04:37:00.581Z,86.42
2019-03-31T04:38:00.558Z,86.8
2019-03-31T04:39:02.882Z,86.61
2019-03-31T04:40:00.646Z,86.22
2019-03-31T04:41:00.486Z,86.32
2019-03-31T04:42:00.464Z,87.27
2019-03-31T04:43:00.442Z,87.18
2019-03-31T04:44:00.412Z,86.99
2019-03-31T04:45:00.392Z,87.18
2019-03-31T04:46:00.363Z,86.99
2019-03-31T04:47:00.342Z,87.18
2019-03-31T04:48:00.321Z,86.9
2019-03-31T04:49:00.291Z,86.99
2019-03-31T04:50:00.374Z,87.46
2019-03-31T04:51:00.243Z,87.56
2019-03-31T04:52:00.283Z,88.04
2019-03-31T04:53:00.195Z,87.56
2019-03-31T04:54:00.169Z,87.56
2019-03-31T04:55:00.147Z,87.56
2019-03-31T04:56:00.131Z,87.65
2019-03-31T04:57:00.105Z,87.56
2019-03-31T04:58:00.079Z,87.65
2019-03-31T04:59:00.052Z,87.75
2019-03-31T05:00:00.023Z,87.85
2019-03-31T05:01:00.003Z,87.56
2019-03-31T05:01:59.985Z,87.56
2019-03-31T05:02:59.956Z,87.56
2019-03-31T05:04:07.403Z,87.75
2019-03-31T05:04:59.913Z,88.04
2019-03-31T05:05:59.889Z,87.8
2019-03-31T05:06:59.855Z,87.99
2019-03-31T05:07:59.832Z,88.04
2019-03-31T05:08:59.808Z,88.09
2019-03-31T05:09:59.862Z,88.04
2019-03-31T05:10:59.760Z,87.99
2019-03-31T05:11:59.731Z,87.61
2019-03-31T05:12:59.711Z,88.18
2019-03-31T05:13:59.685Z,88.56
2019-03-31T05:14:59.700Z,88.28
2019-03-31T05:15:59.638Z,87.99
2019-03-31T05:16:59.614Z,87.99
2019-03-31T05:17:59.601Z,88.18
2019-03-31T05:18:59.563Z,88.37
2019-03-31T05:19:59.538Z,88.37
2019-03-31T05:20:59.511Z,88.18
2019-03-31T05:21:59.487Z,88.28
2019-03-31T05:22:59.467Z,88.28
2019-03-31T05:23:59.503Z,88.18
2019-03-31T05:24:59.416Z,88.66
2019-03-31T05:25:59.394Z,88.09
2019-03-31T05:26:59.367Z,88.56
2019-03-31T05:27:59.342Z,88.18
2019-03-31T05:28:59.321Z,87.71
2019-03-31T05:29:59.291Z,87.99
2019-03-31T05:30:59.274Z,88.28
2019-03-31T05:31:59.242Z,88.18
2019-03-31T05:32:59.217Z,88.13
2019-03-31T05:33:59.195Z,88.18
2019-03-31T05:34:59.176Z,88.28
2019-03-31T05:35:59.163Z,88.42
2019-03-31T05:36:59.123Z,88.32
2019-03-31T05:37:59.097Z,88.28
2019-03-31T05:38:59.082Z,88.18
2019-03-31T05:39:59.053Z,88.28
2019-03-31T05:40:59.034Z,87.9
2019-03-31T05:41:59.001Z,87.94
2019-03-31T05:42:58.977Z,87.99
2019-03-31T05:44:08.232Z,88.13
2019-03-31T05:44:58.960Z,88.09
2019-03-31T05:45:58.902Z,87.99
2019-03-31T05:46:58.876Z,87.99
2019-03-31T05:47:58.860Z,88.09
2019-03-31T05:48:58.831Z,87.94
2019-03-31T05:49:58.803Z,87.9
2019-03-31T05:50:58.781Z,87.99
2019-03-31T05:51:58.758Z,88.28
2019-03-31T05:52:58.736Z,88.28
2019-03-31T05:53:58.705Z,88.66
2019-03-31T05:54:58.683Z,88.46
2019-03-31T05:55:58.656Z,88.51
2019-03-31T05:56:58.637Z,88.46
2019-03-31T05:57:58.610Z,88.37
2019-03-31T05:58:58.359Z,88.46
2019-03-31T05:59:58.560Z,88.46
2019-03-31T06:00:58.536Z,88.37
2019-03-31T06:01:58.509Z,88.46
2019-03-31T06:02:58.485Z,88.56
2019-03-31T06:03:58.462Z,88.46
2019-03-31T06:04:58.436Z,88.56
2019-03-31T06:05:58.415Z,88.66
2019-03-31T06:06:58.390Z,88.66
2019-03-31T06:07:58.368Z,88.37
2019-03-31T06:08:58.340Z,88.56
2019-03-31T06:09:58.323Z,87.99
2019-03-31T06:10:58.296Z,87.9
2019-03-31T06:11:58.279Z,87.9
2019-03-31T06:12:58.243Z,88.09
2019-03-31T06:13:58.271Z,88.09
2019-03-31T06:14:57.959Z,88.18
2019-03-31T06:15:58.171Z,87.99
2019-03-31T06:16:58.153Z,87.99
2019-03-31T06:17:58.122Z,88.09
2019-03-31T06:18:58.097Z,88.18
2019-03-31T06:19:58.073Z,88.18
2019-03-31T06:20:58.052Z,87.99
2019-03-31T06:21:58.028Z,87.71
2019-03-31T06:22:58.002Z,88.18
2019-03-31T06:23:57.973Z,87.61
2019-03-31T06:24:57.953Z,87.99
2019-03-31T06:25:57.954Z,87.71
2019-03-31T06:26:57.905Z,88.28
2019-03-31T06:27:57.880Z,88.18
2019-03-31T06:28:57.856Z,88.28
2019-03-31T06:29:57.837Z,87.71
2019-03-31T06:30:57.807Z,87.99
2019-03-31T06:31:57.779Z,87.61
2019-03-31T06:32:58.059Z,87.8
2019-03-31T06:33:57.734Z,88.28
2019-03-31T06:34:57.709Z,87.99
2019-03-31T06:35:57.683Z,88.18
2019-03-31T06:36:57.661Z,88.28
2019-03-31T06:37:57.637Z,88.28
2019-03-31T06:38:57.610Z,87.52
2019-03-31T06:39:57.591Z,87.71
2019-03-31T06:40:57.573Z,87.99
2019-03-31T06:41:57.537Z,87.99
2019-03-31T06:42:57.515Z,88.56
2019-03-31T06:43:57.493Z,87.99
2019-03-31T06:44:57.470Z,87.8
2019-03-31T06:45:57.440Z,87.9
2019-03-31T06:46:57.416Z,88.56
2019-03-31T06:47:57.160Z,88.37
2019-03-31T06:48:57.365Z,88.37
2019-03-31T06:49:57.338Z,88.37
2019-03-31T06:50:57.326Z,87.8
2019-03-31T06:51:57.296Z,88.28
2019-03-31T06:52:57.270Z,88.46
2019-03-31T06:53:57.245Z,87.99
2019-03-31T06:54:57.220Z,88.18
2019-03-31T06:55:57.200Z,87.9
2019-03-31T06:56:57.173Z,88.04
2019-03-31T06:57:57.148Z,88.56
2019-03-31T06:58:57.120Z,88.66
2019-03-31T06:59:57.098Z,88.61
2019-03-31T07:00:57.074Z,88.61
2019-03-31T07:01:57.048Z,88.71
2019-03-31T07:02:57.027Z,88.52
2019-03-31T07:03:57.002Z,88.52
2019-03-31T07:05:03.256Z,88.71
2019-03-31T07:05:56.947Z,88.42
2019-03-31T07:06:56.924Z,88.61
2019-03-31T07:07:56.731Z,89.37
2019-03-31T07:08:56.879Z,89
2019-03-31T07:09:56.855Z,89
2019-03-31T07:10:56.824Z,89.18
2019-03-31T07:11:56.834Z,89.37
2019-03-31T07:12:59.599Z,89.28
2019-03-31T07:13:56.758Z,89.37
2019-03-31T07:14:56.728Z,89.28
2019-03-31T07:15:56.705Z,89.09
2019-03-31T07:16:56.678Z,89.37
2019-03-31T07:17:56.653Z,89.09
2019-03-31T07:18:56.631Z,89.28
2019-03-31T07:19:56.604Z,88.9
2019-03-31T07:20:56.583Z,89.37
2019-03-31T07:21:56.558Z,88.9
2019-03-31T07:22:56.540Z,89.09
2019-03-31T07:23:56.508Z,89
2019-03-31T07:24:56.492Z,89.18
2019-03-31T07:25:56.455Z,89.56
2019-03-31T07:26:56.432Z,89.66
2019-03-31T07:27:56.408Z,89.66
2019-03-31T07:28:56.378Z,89.94
2019-03-31T07:29:56.354Z,89.94
2019-03-31T07:30:59.242Z,89.47
2019-03-31T07:31:56.307Z,89.75
2019-03-31T07:32:56.280Z,89.66
2019-03-31T07:33:56.257Z,89.85
2019-03-31T07:34:56.234Z,89.75
2019-03-31T07:35:56.209Z,89.85
2019-03-31T07:36:56.192Z,89.66
2019-03-31T07:37:56.158Z,89.85
2019-03-31T07:38:56.193Z,89.75
2019-03-31T07:39:56.625Z,89.85
2019-03-31T07:40:56.154Z,89.09
2019-03-31T07:41:56.764Z,89.37
2019-03-31T07:42:56.131Z,88.8
2019-03-31T07:43:56.012Z,88.9
2019-03-31T07:44:56.282Z,88.9
2019-03-31T07:45:58.318Z,89.47
2019-03-31T07:46:56.211Z,89.94
2019-03-31T07:47:55.917Z,89.75
2019-03-31T07:48:55.898Z,89.66
2019-03-31T07:49:55.868Z,89.85
2019-03-31T07:50:56.001Z,90.52
2019-03-31T07:51:55.820Z,90.14
2019-03-31T07:52:55.796Z,90.23
2019-03-31T07:53:55.770Z,90.42
2019-03-31T07:54:55.742Z,90.61
2019-03-31T07:55:55.716Z,90.33
2019-03-31T07:56:55.693Z,89.94
2019-03-31T07:57:57.062Z,89.94
2019-03-31T07:58:55.737Z,90.04
2019-03-31T07:59:58.906Z,90.42
2019-03-31T08:00:55.595Z,89.85
2019-03-31T08:01:55.572Z,89.85
2019-03-31T08:02:55.546Z,90.42
2019-03-31T08:03:55.524Z,90.14
2019-03-31T08:04:55.501Z,90.04
2019-03-31T08:05:55.474Z,89.85
2019-03-31T08:06:55.454Z,89.85
2019-03-31T08:07:55.434Z,89.66
2019-03-31T08:08:55.934Z,89.94
2019-03-31T08:09:55.376Z,89.85
2019-03-31T08:10:55.438Z,89.18
2019-03-31T08:11:55.869Z,88.9
2019-03-31T08:12:55.843Z,88.9
2019-03-31T08:13:57.668Z,88.9
2019-03-31T08:14:55.255Z,89
2019-03-31T08:15:55.235Z,89
2019-03-31T08:16:55.208Z,88.52
2019-03-31T08:17:55.187Z,88.23
2019-03-31T08:18:55.158Z,88.42
2019-03-31T08:19:55.132Z,88.61
2019-03-31T08:20:55.112Z,88.52
2019-03-31T08:21:55.090Z,87.85
2019-03-31T08:22:57.027Z,87.85
2019-03-31T08:23:55.039Z,88.13
2019-03-31T08:24:55.019Z,88.23
2019-03-31T08:25:54.989Z,87.95
2019-03-31T08:26:54.975Z,88.33
2019-03-31T08:27:54.940Z,87.95
2019-03-31T08:28:58.348Z,87.8
2019-03-31T08:30:02.907Z,87.32
2019-03-31T08:30:54.879Z,87.42
2019-03-31T08:31:54.845Z,87.42
2019-03-31T08:32:54.827Z,86.94
2019-03-31T08:33:54.802Z,86.94
2019-03-31T08:34:54.774Z,86.94
2019-03-31T08:35:54.753Z,87.13
2019-03-31T08:36:54.730Z,87.13
2019-03-31T08:37:54.704Z,86.85
2019-03-31T08:38:54.681Z,86.57
2019-03-31T08:39:54.657Z,86.94
2019-03-31T08:40:54.635Z,86.66
2019-03-31T08:41:54.611Z,86.57
2019-03-31T08:42:54.594Z,86.66
2019-03-31T08:43:54.562Z,86.38
2019-03-31T08:44:54.555Z,86.47
2019-03-31T08:45:54.512Z,85.9
2019-03-31T08:46:54.492Z,85.71
2019-03-31T08:47:54.465Z,86.09
2019-03-31T08:48:54.444Z,85.04
2019-03-31T08:49:54.420Z,84.76
2019-03-31T08:50:54.402Z,85.04
2019-03-31T08:51:54.400Z,84.47
2019-03-31T08:52:54.346Z,84.38
2019-03-31T08:53:54.326Z,84.19
2019-03-31T08:54:54.306Z,84.13
2019-03-31T08:55:54.279Z,83.56
2019-03-31T08:56:54.306Z,83.56
2019-03-31T08:57:54.240Z,83.37
2019-03-31T08:58:54.211Z,82.8
2019-03-31T08:59:54.189Z,82.42
2019-03-31T09:00:54.165Z,82.14
2019-03-31T09:01:54.142Z,81.76
2019-03-31T09:02:54.116Z,81.56
2019-03-31T09:03:54.096Z,81.76
2019-03-31T09:04:54.072Z,81.66
2019-03-31T09:06:04.475Z,81.28
2019-03-31T09:06:54.037Z,81.28
2019-03-31T09:07:54.040Z,80.99
2019-03-31T09:08:53.979Z,80.23
2019-03-31T09:09:53.956Z,80.23
2019-03-31T09:10:53.945Z,80.23
2019-03-31T09:11:53.915Z,79.66
2019-03-31T09:12:53.892Z,80.04
2019-03-31T09:13:53.871Z,80.23
2019-03-31T09:14:53.850Z,80.46
2019-03-31T09:15:53.829Z,79.75
2019-03-31T09:16:53.805Z,80.27
2019-03-31T09:17:56.581Z,79.13
2019-03-31T09:18:53.769Z,79.41
2019-03-31T09:19:53.745Z,79.41
2019-03-31T09:20:53.727Z,79.22
2019-03-31T09:21:53.703Z,79.13
2019-03-31T09:22:53.684Z,79.6
2019-03-31T09:23:53.672Z,79.13
2019-03-31T09:24:53.652Z,78.94
2019-03-31T09:25:53.629Z,79.22
2019-03-31T09:26:53.611Z,78.56
2019-03-31T09:27:53.590Z,79.03
2019-03-31T09:28:53.578Z,78.46
2019-03-31T09:29:53.550Z,78.85
2019-03-31T09:30:53.531Z,78.46
2019-03-31T09:31:53.588Z,78.65
2019-03-31T09:32:53.529Z,78.37
2019-03-31T09:33:53.478Z,77.98
2019-03-31T09:34:53.451Z,78.65
2019-03-31T09:35:53.430Z,78.65
2019-03-31T09:36:53.407Z,78.37
2019-03-31T09:37:53.388Z,78.75
2019-03-31T09:38:54.140Z,78.27
2019-03-31T09:39:53.349Z,78.46
2019-03-31T09:40:53.330Z,77.7
2019-03-31T09:41:53.304Z,77.89
2019-03-31T09:42:53.292Z,77.8
2019-03-31T09:43:53.273Z,77.89
2019-03-31T09:44:53.262Z,77.98
2019-03-31T09:45:53.223Z,77.61
2019-03-31T09:46:53.209Z,77.7
2019-03-31T09:47:53.185Z,77.13
2019-03-31T09:48:53.165Z,77.03
2019-03-31T09:49:53.142Z,77.22
2019-03-31T09:50:56.413Z,76.94
2019-03-31T09:51:53.102Z,76.75
2019-03-31T09:52:53.081Z,76.88
2019-03-31T09:53:53.061Z,76.5
2019-03-31T09:54:53.039Z,75.74
2019-03-31T09:55:53.019Z,75.74
2019-03-31T09:56:52.998Z,75.74
2019-03-31T09:57:52.977Z,75.93
2019-03-31T09:58:52.959Z,75.84
2019-03-31T09:59:52.937Z,75.84
2019-03-31T10:00:52.920Z,75.93
2019-03-31T10:01:52.896Z,75.45
2019-03-31T10:02:52.872Z,75.79
2019-03-31T10:03:52.854Z,75.64
2019-03-31T10:04:52.833Z,75.64
2019-03-31T10:05:52.823Z,75.55
2019-03-31T10:06:52.792Z,75.51
2019-03-31T10:07:52.775Z,75.45
2019-03-31T10:08:52.761Z,75.64
2019-03-31T10:09:52.730Z,75.51
2019-03-31T10:10:52.711Z,75.23
2019-03-31T10:11:52.687Z,75.6
2019-03-31T10:12:52.668Z,75.04
2019-03-31T10:13:52.748Z,75.07
2019-03-31T10:14:54.234Z,75.23
2019-03-31T10:15:52.625Z,74.84
2019-03-31T10:16:52.750Z,74.75
2019-03-31T10:17:52.561Z,74.31
2019-03-31T10:18:52.545Z,74.27
2019-03-31T10:19:52.524Z,74.4
2019-03-31T10:20:52.502Z,74.12
2019-03-31T10:21:52.482Z,74.02
2019-03-31T10:22:52.463Z,73.36
2019-03-31T10:23:52.441Z,73.17
2019-03-31T10:24:52.676Z,73.07
2019-03-31T10:25:52.657Z,72.44
2019-03-31T10:26:52.382Z,72.78
2019-03-31T10:27:52.358Z,72.6
2019-03-31T10:28:52.340Z,72.44
2019-03-31T10:29:52.318Z,72.16
2019-03-31T10:30:52.303Z,71.87
2019-03-31T10:31:52.278Z,71.68
2019-03-31T10:32:52.265Z,71.2
2019-03-31T10:33:52.241Z,71.48
2019-03-31T10:34:52.224Z,71.39
2019-03-31T10:35:52.202Z,71.01
2019-03-31T10:36:52.183Z,71.14
2019-03-31T10:37:52.167Z,70.67
2019-03-31T10:38:52.155Z,70.47
2019-03-31T10:39:52.124Z,70.76
2019-03-31T10:40:52.106Z,70.28
2019-03-31T10:41:52.085Z,70.47
2019-03-31T10:42:52.067Z,70.57
2019-03-31T10:43:52.050Z,71.2
2019-03-31T10:44:52.028Z,70.53
2019-03-31T10:45:52.007Z,71.3
2019-03-31T10:46:51.986Z,71.58
2019-03-31T10:47:51.963Z,71.48
2019-03-31T10:48:51.945Z,71.2
2019-03-31T10:49:51.922Z,71.68
2019-03-31T10:50:51.912Z,72.02
2019-03-31T10:51:51.939Z,72.31
2019-03-31T10:52:52.273Z,72.6
2019-03-31T10:53:51.859Z,72.6
2019-03-31T10:54:51.828Z,72.97
2019-03-31T10:55:51.802Z,72.69
2019-03-31T10:56:51.784Z,73.07
2019-03-31T10:57:51.763Z,72.97
2019-03-31T10:58:51.507Z,73.17
2019-03-31T10:59:51.729Z,73.07
2019-03-31T11:00:51.704Z,72.97
2019-03-31T11:01:51.698Z,73.07
2019-03-31T11:02:51.658Z,72.41
2019-03-31T11:03:51.643Z,72.5
2019-03-31T11:04:51.614Z,72.31
2019-03-31T11:05:51.592Z,72.5
2019-03-31T11:07:03.574Z,71.93
2019-03-31T11:07:51.553Z,71.93
2019-03-31T11:08:51.533Z,72.31
2019-03-31T11:09:51.520Z,72.12
2019-03-31T11:10:51.796Z,72.02
2019-03-31T11:11:51.469Z,71.11
2019-03-31T11:12:53.348Z,71.68
2019-03-31T11:13:51.429Z,71.39
2019-03-31T11:14:51.410Z,71.2
2019-03-31T11:15:51.388Z,71.2
2019-03-31T11:16:51.366Z,70.34
2019-03-31T11:17:51.349Z,70.15
2019-03-31T11:18:51.326Z,70.28
2019-03-31T11:19:51.309Z,69.52
2019-03-31T11:20:51.292Z,68.76
2019-03-31T11:21:51.276Z,68.95
2019-03-31T11:22:51.252Z,68.76
2019-03-31T11:23:51.231Z,67.99
2019-03-31T11:24:51.209Z,68.18
2019-03-31T11:25:51.193Z,68.28
2019-03-31T11:26:51.176Z,68.28
2019-03-31T11:27:51.155Z,67.99
2019-03-31T11:28:51.137Z,68.47
2019-03-31T11:29:51.119Z,68.09
2019-03-31T11:30:51.094Z,68.09
2019-03-31T11:31:51.078Z,68.28
2019-03-31T11:32:51.069Z,68.57
2019-03-31T11:33:51.039Z,68.85
2019-03-31T11:34:51.021Z,68.76
2019-03-31T11:35:51.009Z,69.04
2019-03-31T11:36:50.984Z,69.14
2019-03-31T11:37:50.962Z,69.01
2019-03-31T11:38:50.960Z,70.09
2019-03-31T11:39:50.922Z,69.71
2019-03-31T11:40:50.909Z,68.95
2019-03-31T11:41:50.888Z,69.14
2019-03-31T11:42:50.867Z,68.57
2019-03-31T11:43:50.849Z,68.38
2019-03-31T11:44:50.826Z,68.47
2019-03-31T11:45:50.811Z,68.57
2019-03-31T11:46:50.792Z,67.52
2019-03-31T11:47:50.768Z,67.27
2019-03-31T11:48:50.752Z,67.07
2019-03-31T11:49:50.736Z,67.17
2019-03-31T11:50:50.719Z,66.98
2019-03-31T11:51:50.751Z,67.07
2019-03-31T11:52:50.682Z,66.69
2019-03-31T11:53:50.659Z,66.22
2019-03-31T11:54:50.713Z,66.5
2019-03-31T11:55:50.993Z,66.5
2019-03-31T11:56:50.607Z,65.93
2019-03-31T11:57:50.589Z,66.02
2019-03-31T11:58:50.571Z,65.83
2019-03-31T11:59:52.251Z,65.83
2019-03-31T12:00:50.536Z,66.31
2019-03-31T12:01:50.516Z,66.02
2019-03-31T12:02:50.498Z,65.83
2019-03-31T12:03:50.820Z,65.64
2019-03-31T12:04:50.461Z,65.74
2019-03-31T12:05:50.443Z,65.17
2019-03-31T12:06:50.431Z,64.78
2019-03-31T12:07:50.409Z,64.97
2019-03-31T12:08:50.391Z,64.97
2019-03-31T12:09:50.634Z,64.88
2019-03-31T12:10:50.353Z,65.07
2019-03-31T12:11:50.334Z,64.25
2019-03-31T12:12:50.770Z,64.31
2019-03-31T12:13:50.375Z,64.12
2019-03-31T12:15:02.775Z,64.34
2019-03-31T12:15:50.261Z,63.57
2019-03-31T12:16:50.248Z,62.71
2019-03-31T12:17:50.229Z,62.62
2019-03-31T12:18:50.211Z,62.62
2019-03-31T12:19:51.324Z,63.1
2019-03-31T12:20:50.178Z,63.1
2019-03-31T12:21:50.198Z,63.45
2019-03-31T12:22:50.137Z,63.35
2019-03-31T12:23:50.120Z,62.62
2019-03-31T12:24:50.109Z,63.2
2019-03-31T12:25:50.091Z,63.1
2019-03-31T12:26:50.071Z,62.62
2019-03-31T12:27:50.056Z,62.15
2019-03-31T12:28:50.034Z,62.24
2019-03-31T12:29:50.016Z,62.71
2019-03-31T12:30:49.762Z,62.68
2019-03-31T12:31:49.981Z,62.81
2019-03-31T12:32:50.543Z,62.71
2019-03-31T12:33:49.946Z,62.15
2019-03-31T12:34:49.925Z,62.52
2019-03-31T12:35:50.628Z,62.62
2019-03-31T12:36:49.892Z,63.07
2019-03-31T12:37:49.884Z,63.07
2019-03-31T12:38:49.872Z,62.78
2019-03-31T12:39:49.841Z,62.88
2019-03-31T12:40:49.818Z,63.64
2019-03-31T12:41:49.800Z,63.35
2019-03-31T12:42:49.782Z,64.12
2019-03-31T12:43:49.817Z,64.09
2019-03-31T12:44:50.680Z,64.12
2019-03-31T12:45:49.730Z,64.21
2019-03-31T12:46:49.708Z,64.12
2019-03-31T12:47:49.690Z,64.21
2019-03-31T12:48:49.671Z,64.21
2019-03-31T12:49:49.656Z,64.12
2019-03-31T12:50:49.634Z,64.5
2019-03-31T12:51:49.617Z,64.21
2019-03-31T12:52:53.363Z,64.02
2019-03-31T12:53:53.588Z,63.54
2019-03-31T12:54:50.149Z,63.35